createdAt,value
2019-04-23T00:02:58.559Z,12.80
2019-04-23T00:05:41.444Z,12.70
2019-04-23T00:08:09.712Z,12.80
2019-04-23T00:10:43.112Z,12.80
2019-04-23T00:13:39.340Z,12.70
2019-04-23T00:16:26.465Z,12.80
2019-04-23T00:18:42.579Z,12.70
2019-04-23T00:21:23.534Z,12.70
2019-04-23T00:24:07.529Z,12.70
2019-04-23T00:26:35.475Z,12.70
2019-04-23T00:29:07.893Z,12.70
2019-04-23T00:31:31.153Z,12.70
2019-04-23T00:34:10.826Z,12.70
2019-04-23T00:39:17.336Z,12.60
2019-04-23T00:41:50.482Z,12.70
2019-04-23T00:44:29.368Z,12.60
2019-04-23T00:46:55.900Z,12.70
2019-04-23T00:49:29.096Z,12.60
2019-04-23T00:52:00.647Z,12.60
2019-04-23T00:54:35.631Z,12.50
2019-04-23T00:57:07.475Z,12.50
2019-04-23T00:59:44.788Z,12.40
2019-04-23T01:02:13.271Z,12.50
2019-04-23T01:04:48.131Z,12.40
2019-04-23T01:07:18.757Z,12.40
2019-04-23T01:10:00.904Z,12.50
2019-04-23T01:12:38.365Z,12.40
2019-04-23T01:15:02.786Z,12.40
2019-04-23T01:17:47.234Z,12.40
2019-04-23T01:20:31.954Z,12.30
2019-04-23T01:22:40.180Z,12.30
2019-04-23T01:25:36.438Z,12.20
2019-04-23T01:28:28.277Z,12.20
2019-04-23T01:31:01.931Z,12.20
2019-04-23T01:33:38.033Z,12.10
2019-04-23T01:36:13.983Z,12.10
2019-04-23T01:38:41.728Z,12.00
2019-04-23T01:41:14.563Z,12.00
2019-04-23T01:46:16.402Z,12.00
2019-04-23T01:48:51.883Z,12.00
2019-04-23T01:51:26.241Z,12.00
2019-04-23T01:53:57.312Z,12.10
2019-04-23T01:56:30.752Z,12.00
2019-04-23T01:59:05.425Z,12.00
2019-04-23T02:01:38.803Z,12.00
2019-04-23T02:06:59.006Z,12.00
2019-04-23T02:09:19.476Z,12.00
2019-04-23T02:11:55.158Z,11.90
2019-04-23T02:14:26.769Z,12.00
2019-04-23T02:16:57.896Z,11.90
2019-04-23T02:19:29.062Z,11.80
2019-04-23T02:22:28.392Z,11.80
2019-04-23T02:24:59.390Z,11.70
2019-04-23T02:27:28.323Z,11.80
2019-04-23T02:30:15.529Z,11.80
2019-04-23T02:32:42.134Z,11.70
2019-04-23T02:35:40.304Z,11.80
2019-04-23T02:40:31.039Z,11.80
2019-04-23T02:42:54.615Z,11.80
2019-04-23T02:45:16.952Z,11.80
2019-04-23T02:48:05.712Z,11.70
2019-04-23T02:50:36.728Z,11.70
2019-04-23T02:53:07.849Z,11.70
2019-04-23T02:55:43.762Z,11.70
2019-04-23T02:58:11.037Z,11.70
2019-04-23T03:00:55.630Z,11.70
2019-04-23T03:03:22.533Z,11.80
2019-04-23T03:05:49.281Z,11.80
2019-04-23T03:08:26.716Z,11.80
2019-04-23T03:13:44.244Z,11.70
2019-04-23T03:16:45.465Z,11.70
2019-04-23T03:35:09.132Z,11.50
2019-04-23T03:38:00.789Z,11.60
2019-04-23T03:40:19.140Z,11.60
2019-04-23T03:43:11.774Z,11.60
2019-04-23T03:48:15.009Z,11.50
2019-04-23T03:50:38.883Z,11.50
2019-04-23T03:53:25.554Z,11.50
2019-04-23T03:55:56.223Z,11.50
2019-04-23T03:58:34.786Z,11.40
2019-04-23T04:01:00.972Z,11.40
2019-04-23T04:04:06.437Z,11.50
2019-04-23T04:06:05.455Z,11.40
2019-04-23T04:09:00.685Z,11.50
2019-04-23T04:13:51.022Z,11.50
2019-04-23T04:16:38.299Z,11.50
2019-04-23T04:18:58.367Z,11.50
2019-04-23T04:24:01.577Z,11.60
2019-04-23T04:26:40.981Z,11.60
2019-04-23T04:29:21.158Z,11.60
2019-04-23T04:31:42.823Z,11.70
2019-04-23T04:34:21.450Z,11.70
2019-04-23T04:39:15.382Z,11.80
2019-04-23T04:42:09.341Z,11.70
2019-04-23T04:46:49.960Z,11.90
2019-04-23T04:49:36.475Z,12.00
2019-04-23T04:52:11.239Z,12.00
2019-04-23T04:54:23.119Z,12.10
2019-04-23T04:57:12.983Z,12.20
2019-04-23T04:59:50.977Z,12.30
2019-04-23T05:04:55.910Z,12.40
2019-04-23T05:07:35.946Z,12.50
2019-04-23T05:10:01.621Z,12.60
2019-04-23T05:12:24.162Z,12.60
2019-04-23T05:17:55.376Z,12.80
2019-04-23T05:20:21.212Z,12.90
2019-04-23T05:22:59.519Z,13.00
2019-04-23T05:25:20.904Z,13.10
2019-04-23T05:28:05.644Z,13.20
2019-04-23T05:30:36.360Z,13.10
2019-04-23T05:33:05.960Z,13.20
2019-04-23T05:36:04.907Z,13.30
2019-04-23T05:40:47.770Z,13.40
2019-04-23T05:43:12.643Z,13.50
2019-04-23T05:45:46.735Z,13.70
2019-04-23T05:48:28.326Z,13.70
2019-04-23T05:50:59.230Z,13.80
2019-04-23T05:53:26.989Z,13.90
2019-04-23T05:56:01.913Z,13.90
2019-04-23T05:58:38.681Z,14.10
2019-04-23T06:04:03.966Z,14.10
2019-04-23T06:06:54.134Z,14.20
2019-04-23T06:09:12.735Z,14.40
2019-04-23T06:11:51.193Z,14.50
2019-04-23T06:14:20.424Z,14.50
2019-04-23T06:19:20.070Z,14.80
2019-04-23T06:21:57.748Z,14.90
2019-04-23T06:24:29.066Z,14.90
2019-04-23T06:27:15.088Z,15.00
2019-04-23T06:31:58.793Z,15.20
2019-04-23T06:34:38.250Z,15.30
2019-04-23T06:37:12.778Z,15.40
2019-04-23T06:39:43.079Z,15.50
2019-04-23T06:42:11.550Z,15.60
2019-04-23T06:47:25.510Z,15.80
2019-04-23T06:52:30.184Z,16.00
2019-04-23T06:55:09.410Z,16.00
2019-04-23T06:57:33.699Z,16.10
2019-04-23T07:00:13.831Z,16.20
2019-04-23T07:02:44.497Z,16.30
2019-04-23T07:05:25.299Z,16.50
2019-04-23T07:07:50.290Z,16.50
2019-04-23T07:10:26.748Z,16.60
2019-04-23T07:12:56.984Z,16.80
2019-04-23T07:15:42.386Z,17.00
2019-04-23T07:18:03.882Z,17.10
2019-04-23T07:20:40.040Z,17.20
2019-04-23T07:23:14.139Z,17.30
2019-04-23T07:25:51.799Z,17.40
2019-04-23T07:28:21.288Z,17.50
2019-04-23T07:30:55.904Z,17.60
2019-04-23T07:33:28.140Z,17.70
2019-04-23T07:36:04.925Z,17.80
2019-04-23T07:39:07.653Z,17.90
2019-04-23T07:44:50.217Z,18.10
2019-04-23T07:47:25.152Z,18.30
2019-04-23T07:50:15.861Z,18.30
2019-04-23T07:52:41.491Z,18.50
2019-04-23T07:55:21.948Z,18.60
2019-04-23T07:57:40.228Z,18.70
2019-04-23T08:00:18.188Z,18.60
2019-04-23T08:02:44.140Z,18.70
2019-04-23T08:05:22.381Z,18.70
2019-04-23T08:07:57.136Z,18.70
2019-04-23T08:10:29.728Z,18.70
2019-04-23T08:13:12.058Z,18.90
2019-04-23T08:15:38.042Z,18.80
2019-04-23T08:18:13.463Z,19.00
2019-04-23T08:20:47.349Z,19.00
2019-04-23T08:23:38.539Z,19.10
2019-04-23T08:26:48.458Z,19.10
2019-04-23T08:29:28.113Z,19.20
2019-04-23T08:37:04.669Z,19.60
2019-04-23T08:39:39.782Z,19.80
2019-04-23T08:42:27.073Z,19.90
2019-04-23T08:44:57.373Z,20.00
2019-04-23T08:47:22.951Z,20.20
2019-04-23T08:50:15.392Z,20.40
2019-04-23T08:52:33.484Z,20.60
2019-04-23T08:55:11.377Z,20.70
2019-04-23T08:57:39.282Z,20.90
2019-04-23T09:00:14.071Z,21.10
2019-04-23T09:02:50.124Z,21.30
2019-04-23T09:05:24.897Z,21.50
2019-04-23T09:08:01.480Z,21.80
2019-04-23T09:10:26.369Z,21.90
2019-04-23T09:13:32.183Z,22.20
2019-04-23T09:15:42.894Z,22.40
2019-04-23T09:18:12.323Z,22.50
2019-04-23T09:23:13.597Z,22.80
2019-04-23T09:25:47.713Z,23.00
2019-04-23T09:28:28.593Z,23.40
2019-04-23T09:30:55.526Z,23.60
2019-04-23T09:34:03.504Z,24.00
2019-04-23T09:36:27.474Z,24.50
2019-04-23T09:39:12.766Z,24.80
2019-04-23T09:42:03.937Z,25.00
2019-04-23T09:50:36.634Z,25.70
2019-04-23T09:53:17.102Z,26.00
2019-04-23T10:01:05.047Z,25.80
2019-04-23T10:03:09.215Z,25.80
2019-04-23T10:05:40.016Z,25.50
2019-04-23T10:08:11.334Z,25.50
2019-04-23T10:10:36.532Z,25.60
2019-04-23T10:13:08.362Z,25.40
2019-04-23T10:15:46.028Z,25.40
2019-04-23T10:18:16.242Z,25.50
2019-04-23T10:20:48.744Z,25.80
2019-04-23T10:23:21.257Z,26.20
2019-04-23T10:25:53.972Z,26.50
2019-04-23T10:28:29.715Z,26.80
2019-04-23T10:31:02.813Z,26.70
2019-04-23T10:33:34.434Z,26.80
2019-04-23T10:36:11.060Z,27.20
2019-04-23T10:38:41.674Z,27.40
2019-04-23T10:41:12.140Z,27.10
2019-04-23T10:43:48.390Z,26.90
2019-04-23T10:46:47.130Z,26.60
2019-04-23T10:57:16.697Z,26.50
2019-04-23T11:02:43.184Z,26.20
2019-04-23T11:07:30.949Z,26.10
2019-04-23T11:10:13.120Z,26.10
2019-04-23T11:12:44.558Z,26.20
2019-04-23T11:22:56.760Z,26.50
2019-04-23T11:25:34.900Z,26.90
2019-04-23T11:28:13.572Z,27.60
2019-04-23T11:30:46.411Z,28.20
2019-04-23T11:36:30.258Z,28.60
2019-04-23T11:38:50.809Z,28.90
2019-04-23T11:41:00.565Z,29.30
2019-04-23T11:58:52.918Z,29.90
2019-04-23T12:07:34.717Z,30.00
2019-04-23T12:10:44.150Z,29.80
2019-04-23T12:13:07.501Z,29.60
2019-04-23T12:15:44.271Z,29.80
2019-04-23T12:20:45.055Z,30.00
2019-04-23T12:25:58.766Z,29.80
2019-04-23T12:28:31.848Z,29.70
2019-04-23T12:30:57.087Z,29.60
2019-04-23T12:33:43.916Z,29.70
2019-04-23T12:36:33.888Z,29.70
2019-04-23T12:38:57.081Z,29.80
2019-04-23T12:41:41.722Z,29.90
2019-04-23T12:44:16.163Z,29.90
2019-04-23T12:46:59.754Z,29.40
2019-04-23T12:49:22.165Z,29.00
2019-04-23T12:51:46.891Z,28.90
2019-04-23T12:54:38.351Z,28.70
2019-04-23T12:56:59.503Z,28.50
2019-04-23T12:59:23.625Z,28.10
2019-04-23T13:01:57.618Z,27.90
2019-04-23T13:04:38.108Z,27.60
2019-04-23T13:06:57.977Z,27.20
2019-04-23T13:09:49.173Z,26.80
2019-04-23T13:12:20.571Z,26.60
2019-04-23T13:14:51.097Z,26.50
2019-04-23T13:17:34.188Z,26.50
2019-04-23T13:20:15.161Z,26.20
2019-04-23T13:22:30.738Z,26.20
2019-04-23T13:25:15.397Z,26.20
2019-04-23T13:27:53.975Z,26.20
2019-04-23T13:30:24.994Z,26.20
2019-04-23T13:33:03.118Z,26.10
2019-04-23T13:43:13.896Z,25.60
2019-04-23T13:48:23.304Z,25.40
2019-04-23T13:53:35.277Z,25.20
2019-04-23T13:55:53.044Z,25.20
2019-04-23T13:58:36.074Z,25.20
2019-04-23T14:01:13.982Z,25.10
2019-04-23T14:03:41.164Z,25.00
2019-04-23T14:06:18.075Z,24.80
2019-04-23T14:11:26.403Z,24.50
2019-04-23T14:13:59.727Z,24.50
2019-04-23T14:16:28.601Z,24.50
2019-04-23T14:18:58.737Z,24.40
2019-04-23T14:21:36.995Z,24.40
2019-04-23T14:29:04.469Z,24.40
2019-04-23T14:34:09.070Z,24.20
2019-04-23T14:36:55.558Z,24.20
2019-04-23T14:39:24.029Z,24.10
2019-04-23T14:41:53.787Z,24.00
2019-04-23T14:44:41.382Z,24.00
2019-04-23T14:50:19.048Z,23.80
2019-04-23T14:52:38.191Z,23.70
2019-04-23T14:55:42.601Z,23.60
2019-04-23T14:57:57.488Z,23.60
2019-04-23T15:00:18.592Z,23.70
2019-04-23T15:05:17.432Z,23.80
2019-04-23T15:07:50.680Z,23.80
2019-04-23T15:10:26.346Z,23.80
2019-04-23T15:12:59.662Z,23.70
2019-04-23T15:15:35.772Z,23.70
2019-04-23T15:18:04.080Z,23.70
2019-04-23T15:20:46.371Z,23.70
2019-04-23T15:23:33.350Z,23.70
2019-04-23T15:26:39.434Z,23.70
2019-04-23T15:28:07.748Z,23.70
2019-04-23T15:31:02.285Z,23.70
2019-04-23T15:33:35.330Z,23.70
2019-04-23T15:36:30.527Z,23.70
2019-04-23T15:41:15.283Z,23.60
2019-04-23T15:43:53.230Z,23.50
2019-04-23T15:46:26.880Z,23.40
2019-04-23T15:49:01.295Z,23.30
2019-04-23T15:54:04.111Z,23.20
2019-04-23T15:56:50.568Z,23.10
2019-04-23T16:03:47.144Z,22.70
2019-04-23T16:06:21.453Z,22.60
2019-04-23T16:09:21.837Z,22.50
2019-04-23T16:11:48.170Z,22.50
2019-04-23T16:14:45.742Z,22.40
2019-04-23T16:17:06.688Z,22.40
2019-04-23T16:20:06.412Z,22.40
2019-04-23T16:22:24.854Z,22.20
2019-04-23T16:25:09.922Z,22.20
2019-04-23T16:27:31.313Z,22.20
2019-04-23T16:30:36.482Z,22.20
2019-04-23T16:33:08.612Z,22.10
2019-04-23T16:35:43.378Z,22.00
2019-04-23T16:43:13.265Z,21.90
2019-04-23T16:45:51.327Z,21.90
2019-04-23T16:53:26.685Z,21.50
2019-04-23T16:58:55.221Z,21.40
2019-04-23T17:03:44.603Z,21.20
2019-04-23T17:06:15.794Z,21.20
2019-04-23T17:14:02.692Z,20.90
2019-04-23T17:19:13.389Z,20.80
2019-04-23T17:21:57.282Z,20.70
2019-04-23T17:27:07.112Z,20.70
2019-04-23T17:31:44.815Z,20.60
2019-04-23T17:34:30.500Z,20.50
2019-04-23T17:37:12.170Z,20.40
2019-04-23T17:39:54.165Z,20.30
2019-04-23T17:42:32.803Z,20.30
2019-04-23T17:45:24.189Z,20.30
2019-04-23T17:47:52.265Z,20.20
2019-04-23T17:50:20.187Z,20.20
2019-04-23T17:53:00.963Z,20.10
2019-04-23T17:55:21.729Z,20.00
2019-04-23T17:58:01.177Z,20.00
2019-04-23T18:00:39.003Z,19.90
2019-04-23T18:05:41.694Z,19.80
2019-04-23T18:08:12.333Z,19.70
2019-04-23T18:10:56.460Z,19.60
2019-04-23T18:13:22.976Z,19.60
2019-04-23T18:16:04.106Z,19.50
2019-04-23T18:18:38.151Z,19.40
2019-04-23T18:24:27.344Z,19.20
2019-04-23T18:27:05.168Z,19.10
2019-04-23T18:32:52.585Z,18.90
2019-04-23T18:35:15.304Z,18.80
2019-04-23T18:37:34.236Z,18.70
2019-04-23T18:40:06.863Z,18.60
2019-04-23T18:45:26.087Z,18.40
2019-04-23T18:47:56.973Z,18.30
2019-04-23T18:50:33.140Z,18.30
2019-04-23T18:52:55.550Z,18.10
2019-04-23T18:55:52.635Z,18.00
2019-04-23T18:58:04.229Z,17.90
2019-04-23T19:00:45.456Z,17.80
2019-04-23T19:03:37.354Z,17.70
2019-04-23T19:06:37.671Z,17.70
2019-04-23T19:09:47.834Z,17.50
2019-04-23T19:12:24.800Z,17.40
2019-04-23T19:14:57.954Z,17.30
2019-04-23T19:22:44.527Z,17.10
2019-04-23T19:25:07.470Z,17.00
2019-04-23T19:27:40.500Z,17.00
2019-04-23T19:30:32.981Z,16.80
2019-04-23T19:33:03.929Z,16.80
2019-04-23T19:38:17.886Z,16.70
2019-04-23T19:40:53.576Z,16.60
2019-04-23T19:46:00.591Z,16.40
2019-04-23T19:48:30.352Z,16.40
2019-04-23T19:51:05.288Z,16.40
2019-04-23T19:58:49.975Z,16.20
2019-04-23T20:03:49.682Z,16.10
2019-04-23T20:06:41.671Z,16.00
2019-04-23T20:11:34.930Z,15.90
2019-04-23T20:13:57.496Z,15.80
2019-04-23T20:16:40.123Z,15.80
2019-04-23T20:19:18.807Z,15.70
2019-04-23T20:22:09.218Z,15.70
2019-04-23T20:24:34.726Z,15.60
2019-04-23T20:27:06.052Z,15.60
2019-04-23T20:29:50.853Z,15.50
2019-04-23T20:35:06.718Z,15.50
2019-04-23T20:37:42.793Z,15.50
2019-04-23T20:39:56.661Z,15.50
2019-04-23T20:42:27.404Z,15.50
2019-04-23T20:45:06.333Z,15.40
2019-04-23T20:47:37.395Z,15.40
2019-04-23T20:49:58.491Z,15.30
2019-04-23T20:52:45.144Z,15.30
2019-04-23T20:55:19.320Z,15.20
2019-04-23T20:58:03.624Z,15.20
2019-04-23T21:00:54.703Z,15.10
2019-04-23T21:05:58.510Z,15.00
2019-04-23T21:10:56.821Z,15.00
2019-04-23T21:14:01.936Z,15.00
2019-04-23T21:16:05.058Z,15.00
2019-04-23T21:21:22.192Z,14.90
2019-04-23T21:23:50.253Z,14.90
2019-04-23T21:26:21.535Z,14.90
2019-04-23T21:29:17.610Z,14.80
2019-04-23T21:31:53.968Z,14.90
2019-04-23T21:34:24.658Z,14.90
2019-04-23T21:36:58.343Z,14.90
2019-04-23T21:40:20.828Z,14.90
2019-04-23T21:42:55.960Z,14.80
2019-04-23T21:45:14.126Z,14.90
2019-04-23T21:48:02.384Z,14.80
2019-04-23T21:53:00.190Z,14.80
2019-04-23T21:55:43.646Z,14.70
2019-04-23T21:58:07.288Z,14.70
2019-04-23T22:00:46.190Z,14.70
2019-04-23T22:03:18.174Z,14.60
2019-04-23T22:05:51.270Z,14.60
2019-04-23T22:08:19.966Z,14.50
2019-04-23T22:11:10.782Z,14.50
2019-04-23T22:13:41.656Z,14.50
2019-04-23T22:16:05.690Z,14.50
2019-04-23T22:18:34.370Z,14.50
2019-04-23T22:21:05.132Z,14.50
2019-04-23T22:23:50.521Z,14.50
2019-04-23T22:26:13.456Z,14.40
2019-04-23T22:29:00.081Z,14.30
2019-04-23T22:31:22.641Z,14.30
2019-04-23T22:34:08.716Z,14.30
2019-04-23T22:36:23.039Z,14.20
2019-04-23T22:38:59.996Z,14.20
2019-04-23T22:41:36.341Z,14.20
2019-04-23T22:46:51.077Z,14.20
2019-04-23T22:49:23.223Z,14.10
2019-04-23T22:54:13.995Z,14.00
2019-04-23T22:56:54.810Z,14.00
2019-04-23T23:05:14.229Z,13.90
2019-04-23T23:07:47.960Z,13.90
2019-04-23T23:10:12.902Z,13.80
2019-04-23T23:15:24.429Z,13.80
2019-04-23T23:18:07.343Z,13.70
2019-04-23T23:23:13.247Z,13.60
2019-04-23T23:25:47.849Z,13.50
2019-04-23T23:36:01.590Z,13.30
2019-04-23T23:38:33.440Z,13.30
2019-04-23T23:43:35.419Z,13.20
2019-04-23T23:51:17.039Z,13.00
2019-04-23T23:54:06.574Z,13.00
2019-04-23T23:56:14.049Z,12.90
2019-04-23T23:59:01.780Z,12.90
